sensor_id;sensor_type;location;lat;lon;timestamp;temperature;humidity
25945;SHT31;13742;49.306;8.636;2023-08-01T00:00:50;19.37;83.38
25945;SHT31;13742;49.306;8.636;2023-08-01T00:01:50;19.34;83.51
25945;SHT31;13742;49.306;8.636;2023-08-01T00:02:50;19.34;83.20
25945;SHT31;13742;49.306;8.636;2023-08-01T00:03:50;19.34;83.51
25945;SHT31;13742;49.306;8.636;2023-08-01T00:04:50;19.33;83.86
25945;SHT31;13742;49.306;8.636;2023-08-01T00:05:50;19.31;84.07
25945;SHT31;13742;49.306;8.636;2023-08-01T00:06:50;19.30;83.44
25945;SHT31;13742;49.306;8.636;2023-08-01T00:07:50;19.30;83.40
25945;SHT31;13742;49.306;8.636;2023-08-01T00:08:50;19.27;83.70
25945;SHT31;13742;49.306;8.636;2023-08-01T00:09:50;19.27;83.82
25945;SHT31;13742;49.306;8.636;2023-08-01T00:10:50;19.26;83.91
25945;SHT31;13742;49.306;8.636;2023-08-01T00:11:50;19.24;83.96
25945;SHT31;13742;49.306;8.636;2023-08-01T00:12:50;19.27;83.95
25945;SHT31;13742;49.306;8.636;2023-08-01T00:13:50;19.23;84.16
25945;SHT31;13742;49.306;8.636;2023-08-01T00:14:50;19.20;84.59
25945;SHT31;13742;49.306;8.636;2023-08-01T00:15:50;19.18;84.38
25945;SHT31;13742;49.306;8.636;2023-08-01T00:16:50;19.18;84.58
25945;SHT31;13742;49.306;8.636;2023-08-01T00:17:50;19.17;84.20
25945;SHT31;13742;49.306;8.636;2023-08-01T00:18:50;19.17;84.42
25945;SHT31;13742;49.306;8.636;2023-08-01T00:19:50;19.14;84.62
25945;SHT31;13742;49.306;8.636;2023-08-01T00:20:52;19.14;84.62
25945;SHT31;13742;49.306;8.636;2023-08-01T00:21:50;19.11;85.04
25945;SHT31;13742;49.306;8.636;2023-08-01T00:22:50;19.11;84.66
25945;SHT31;13742;49.306;8.636;2023-08-01T00:23:50;19.11;85.16
25945;SHT31;13742;49.306;8.636;2023-08-01T00:24:50;19.11;84.76
25945;SHT31;13742;49.306;8.636;2023-08-01T00:25:51;19.11;84.76
25945;SHT31;13742;49.306;8.636;2023-08-01T00:26:50;19.13;84.54
25945;SHT31;13742;49.306;8.636;2023-08-01T00:27:51;19.10;85.19
25945;SHT31;13742;49.306;8.636;2023-08-01T00:28:50;19.07;85.17
25945;SHT31;13742;49.306;8.636;2023-08-01T00:29:50;19.06;85.50
25945;SHT31;13742;49.306;8.636;2023-08-01T00:30:50;19.07;85.06
25945;SHT31;13742;49.306;8.636;2023-08-01T00:31:50;19.04;84.69
25945;SHT31;13742;49.306;8.636;2023-08-01T00:32:50;19.04;84.89
25945;SHT31;13742;49.306;8.636;2023-08-01T00:33:50;19.06;85.40
25945;SHT31;13742;49.306;8.636;2023-08-01T00:34:50;19.03;85.09
25945;SHT31;13742;49.306;8.636;2023-08-01T00:35:53;19.03;84.98
25945;SHT31;13742;49.306;8.636;2023-08-01T00:36:50;19.03;85.14
25945;SHT31;13742;49.306;8.636;2023-08-01T00:37:50;19.03;85.33
25945;SHT31;13742;49.306;8.636;2023-08-01T00:38:50;19.00;84.84
25945;SHT31;13742;49.306;8.636;2023-08-01T00:39:50;19.00;85.42
25945;SHT31;13742;49.306;8.636;2023-08-01T00:40:50;18.98;85.29
25945;SHT31;13742;49.306;8.636;2023-08-01T00:41:50;18.98;85.46
25945;SHT31;13742;49.306;8.636;2023-08-01T00:42:55;18.96;85.41
25945;SHT31;13742;49.306;8.636;2023-08-01T00:43:50;18.97;85.41
25945;SHT31;13742;49.306;8.636;2023-08-01T00:44:51;18.97;85.58
25945;SHT31;13742;49.306;8.636;2023-08-01T00:45:50;18.96;85.09
25945;SHT31;13742;49.306;8.636;2023-08-01T00:46:50;18.97;85.19
25945;SHT31;13742;49.306;8.636;2023-08-01T00:47:54;19.00;85.81
25945;SHT31;13742;49.306;8.636;2023-08-01T00:48:50;18.98;85.16
25945;SHT31;13742;49.306;8.636;2023-08-01T00:49:50;18.97;85.19
25945;SHT31;13742;49.306;8.636;2023-08-01T00:50:50;18.96;84.90
25945;SHT31;13742;49.306;8.636;2023-08-01T00:51:50;18.97;84.57
25945;SHT31;13742;49.306;8.636;2023-08-01T00:52:50;18.97;84.56
25945;SHT31;13742;49.306;8.636;2023-08-01T00:53:50;18.94;84.64
25945;SHT31;13742;49.306;8.636;2023-08-01T00:54:50;18.96;84.47
25945;SHT31;13742;49.306;8.636;2023-08-01T00:55:51;18.94;84.42
25945;SHT31;13742;49.306;8.636;2023-08-01T00:56:50;18.97;84.57
25945;SHT31;13742;49.306;8.636;2023-08-01T00:57:50;18.94;84.40
25945;SHT31;13742;49.306;8.636;2023-08-01T00:58:50;18.93;84.25
25945;SHT31;13742;49.306;8.636;2023-08-01T00:59:50;18.97;84.50
25945;SHT31;13742;49.306;8.636;2023-08-01T01:00:50;18.94;84.45
25945;SHT31;13742;49.306;8.636;2023-08-01T01:01:50;18.94;84.39
25945;SHT31;13742;49.306;8.636;2023-08-01T01:02:50;18.96;84.37
25945;SHT31;13742;49.306;8.636;2023-08-01T01:03:50;18.96;84.42
25945;SHT31;13742;49.306;8.636;2023-08-01T01:04:50;18.93;84.29
25945;SHT31;13742;49.306;8.636;2023-08-01T01:05:57;18.97;84.66
25945;SHT31;13742;49.306;8.636;2023-08-01T01:07:02;18.96;84.35
25945;SHT31;13742;49.306;8.636;2023-08-01T01:07:50;18.96;84.79
25945;SHT31;13742;49.306;8.636;2023-08-01T01:08:50;18.94;84.79
25945;SHT31;13742;49.306;8.636;2023-08-01T01:09:50;18.96;84.42
25945;SHT31;13742;49.306;8.636;2023-08-01T01:10:50;18.94;84.68
25945;SHT31;13742;49.306;8.636;2023-08-01T01:11:50;18.96;84.34
25945;SHT31;13742;49.306;8.636;2023-08-01T01:12:50;18.97;84.67
25945;SHT31;13742;49.306;8.636;2023-08-01T01:13:53;18.97;84.83
25945;SHT31;13742;49.306;8.636;2023-08-01T01:14:50;18.97;84.53
25945;SHT31;13742;49.306;8.636;2023-08-01T01:15:50;18.96;84.75
25945;SHT31;13742;49.306;8.636;2023-08-01T01:16:51;18.96;85.33
25945;SHT31;13742;49.306;8.636;2023-08-01T01:17:50;18.94;85.85
25945;SHT31;13742;49.306;8.636;2023-08-01T01:18:50;18.94;85.65
25945;SHT31;13742;49.306;8.636;2023-08-01T01:19:50;18.93;85.91
25945;SHT31;13742;49.306;8.636;2023-08-01T01:20:50;18.91;85.65
25945;SHT31;13742;49.306;8.636;2023-08-01T01:21:50;18.89;85.42
25945;SHT31;13742;49.306;8.636;2023-08-01T01:22:52;18.87;85.53
25945;SHT31;13742;49.306;8.636;2023-08-01T01:23:50;18.84;85.65
25945;SHT31;13742;49.306;8.636;2023-08-01T01:24:50;18.87;85.52
25945;SHT31;13742;49.306;8.636;2023-08-01T01:25:51;18.84;85.47
25945;SHT31;13742;49.306;8.636;2023-08-01T01:26:50;18.83;85.76
25945;SHT31;13742;49.306;8.636;2023-08-01T01:27:51;18.84;85.66
25945;SHT31;13742;49.306;8.636;2023-08-01T01:28:50;18.84;85.83
25945;SHT31;13742;49.306;8.636;2023-08-01T01:29:50;18.84;85.84
25945;SHT31;13742;49.306;8.636;2023-08-01T01:30:51;18.79;86.25
25945;SHT31;13742;49.306;8.636;2023-08-01T01:31:50;18.77;86.12
25945;SHT31;13742;49.306;8.636;2023-08-01T01:32:50;18.77;86.50
25945;SHT31;13742;49.306;8.636;2023-08-01T01:33:50;18.77;86.39
25945;SHT31;13742;49.306;8.636;2023-08-01T01:34:50;18.79;86.20
25945;SHT31;13742;49.306;8.636;2023-08-01T01:35:50;18.79;86.20
25945;SHT31;13742;49.306;8.636;2023-08-01T01:36:50;18.76;86.44
25945;SHT31;13742;49.306;8.636;2023-08-01T01:37:50;18.77;86.18
25945;SHT31;13742;49.306;8.636;2023-08-01T01:38:50;18.75;86.06
25945;SHT31;13742;49.306;8.636;2023-08-01T01:39:49;18.75;86.40
25945;SHT31;13742;49.306;8.636;2023-08-01T01:40:49;18.75;86.37
25945;SHT31;13742;49.306;8.636;2023-08-01T01:41:50;18.75;86.39
25945;SHT31;13742;49.306;8.636;2023-08-01T01:42:50;18.76;86.29
25945;SHT31;13742;49.306;8.636;2023-08-01T01:43:50;18.75;86.65
25945;SHT31;13742;49.306;8.636;2023-08-01T01:44:49;18.75;86.44
25945;SHT31;13742;49.306;8.636;2023-08-01T01:45:50;18.75;86.58
25945;SHT31;13742;49.306;8.636;2023-08-01T01:46:50;18.75;86.50
25945;SHT31;13742;49.306;8.636;2023-08-01T01:47:49;18.72;86.37
25945;SHT31;13742;49.306;8.636;2023-08-01T01:48:50;18.73;86.20
25945;SHT31;13742;49.306;8.636;2023-08-01T01:49:49;18.70;86.42
25945;SHT31;13742;49.306;8.636;2023-08-01T01:50:50;18.65;86.86
25945;SHT31;13742;49.306;8.636;2023-08-01T01:51:49;18.68;86.57
25945;SHT31;13742;49.306;8.636;2023-08-01T01:52:50;18.69;86.95
25945;SHT31;13742;49.306;8.636;2023-08-01T01:53:49;18.72;86.87
25945;SHT31;13742;49.306;8.636;2023-08-01T01:54:50;18.69;86.58
25945;SHT31;13742;49.306;8.636;2023-08-01T01:55:49;18.69;86.59
25945;SHT31;13742;49.306;8.636;2023-08-01T01:56:49;18.68;86.34
25945;SHT31;13742;49.306;8.636;2023-08-01T01:57:50;18.69;86.59
25945;SHT31;13742;49.306;8.636;2023-08-01T01:58:50;18.65;86.45
25945;SHT31;13742;49.306;8.636;2023-08-01T01:59:50;18.69;86.94
25945;SHT31;13742;49.306;8.636;2023-08-01T02:00:49;18.70;86.77
25945;SHT31;13742;49.306;8.636;2023-08-01T02:01:50;18.68;86.96
25945;SHT31;13742;49.306;8.636;2023-08-01T02:02:49;18.68;86.59
25945;SHT31;13742;49.306;8.636;2023-08-01T02:03:49;18.68;86.54
25945;SHT31;13742;49.306;8.636;2023-08-01T02:04:50;18.68;86.92
25945;SHT31;13742;49.306;8.636;2023-08-01T02:05:49;18.69;87.01
25945;SHT31;13742;49.306;8.636;2023-08-01T02:06:50;18.66;86.93
25945;SHT31;13742;49.306;8.636;2023-08-01T02:07:49;18.66;86.62
25945;SHT31;13742;49.306;8.636;2023-08-01T02:08:49;18.68;86.99
25945;SHT31;13742;49.306;8.636;2023-08-01T02:09:49;18.66;86.68
25945;SHT31;13742;49.306;8.636;2023-08-01T02:10:50;18.66;86.75
25945;SHT31;13742;49.306;8.636;2023-08-01T02:11:50;18.65;87.12
25945;SHT31;13742;49.306;8.636;2023-08-01T02:12:50;18.65;86.77
25945;SHT31;13742;49.306;8.636;2023-08-01T02:13:49;18.68;87.16
25945;SHT31;13742;49.306;8.636;2023-08-01T02:14:50;18.66;86.94
25945;SHT31;13742;49.306;8.636;2023-08-01T02:15:50;18.69;87.32
25945;SHT31;13742;49.306;8.636;2023-08-01T02:16:49;18.70;87.23
25945;SHT31;13742;49.306;8.636;2023-08-01T02:17:49;18.73;87.04
25945;SHT31;13742;49.306;8.636;2023-08-01T02:18:49;18.69;86.93
25945;SHT31;13742;49.306;8.636;2023-08-01T02:19:49;18.69;87.15
25945;SHT31;13742;49.306;8.636;2023-08-01T02:20:49;18.68;86.84
25945;SHT31;13742;49.306;8.636;2023-08-01T02:21:49;18.66;86.87
25945;SHT31;13742;49.306;8.636;2023-08-01T02:22:49;18.72;87.10
25945;SHT31;13742;49.306;8.636;2023-08-01T02:23:50;18.70;87.42
25945;SHT31;13742;49.306;8.636;2023-08-01T02:24:49;18.69;86.92
25945;SHT31;13742;49.306;8.636;2023-08-01T02:25:50;18.68;87.30
25945;SHT31;13742;49.306;8.636;2023-08-01T02:26:50;18.65;87.08
25945;SHT31;13742;49.306;8.636;2023-08-01T02:27:49;18.66;87.17
25945;SHT31;13742;49.306;8.636;2023-08-01T02:28:50;18.65;87.38
25945;SHT31;13742;49.306;8.636;2023-08-01T02:29:50;18.65;87.30
25945;SHT31;13742;49.306;8.636;2023-08-01T02:30:50;18.65;87.20
25945;SHT31;13742;49.306;8.636;2023-08-01T02:31:49;18.65;87.15
25945;SHT31;13742;49.306;8.636;2023-08-01T02:32:49;18.65;87.35
25945;SHT31;13742;49.306;8.636;2023-08-01T02:33:50;18.65;87.23
25945;SHT31;13742;49.306;8.636;2023-08-01T02:34:49;18.66;87.69
25945;SHT31;13742;49.306;8.636;2023-08-01T02:35:49;18.63;87.79
25945;SHT31;13742;49.306;8.636;2023-08-01T02:36:50;18.66;87.41
25945;SHT31;13742;49.306;8.636;2023-08-01T02:37:49;18.66;87.20
25945;SHT31;13742;49.306;8.636;2023-08-01T02:38:49;18.63;87.29
25945;SHT31;13742;49.306;8.636;2023-08-01T02:39:49;18.65;87.49
25945;SHT31;13742;49.306;8.636;2023-08-01T02:40:49;18.62;87.49
25945;SHT31;13742;49.306;8.636;2023-08-01T02:41:49;18.60;87.57
25945;SHT31;13742;49.306;8.636;2023-08-01T02:42:49;18.59;87.39
25945;SHT31;13742;49.306;8.636;2023-08-01T02:43:49;18.60;87.30
25945;SHT31;13742;49.306;8.636;2023-08-01T02:44:49;18.60;87.29
25945;SHT31;13742;49.306;8.636;2023-08-01T02:45:49;18.62;87.15
25945;SHT31;13742;49.306;8.636;2023-08-01T02:46:49;18.62;87.40
25945;SHT31;13742;49.306;8.636;2023-08-01T02:47:49;18.63;87.88
25945;SHT31;13742;49.306;8.636;2023-08-01T02:48:50;18.62;87.51
25945;SHT31;13742;49.306;8.636;2023-08-01T02:49:49;18.62;87.53
25945;SHT31;13742;49.306;8.636;2023-08-01T02:50:49;18.63;87.36
25945;SHT31;13742;49.306;8.636;2023-08-01T02:51:49;18.62;87.18
25945;SHT31;13742;49.306;8.636;2023-08-01T02:52:49;18.60;87.55
25945;SHT31;13742;49.306;8.636;2023-08-01T02:53:49;18.63;87.46
25945;SHT31;13742;49.306;8.636;2023-08-01T02:54:49;18.63;87.48
25945;SHT31;13742;49.306;8.636;2023-08-01T02:55:49;18.63;87.46
25945;SHT31;13742;49.306;8.636;2023-08-01T02:56:50;18.60;87.11
25945;SHT31;13742;49.306;8.636;2023-08-01T02:57:49;18.62;87.26
25945;SHT31;13742;49.306;8.636;2023-08-01T02:58:51;18.62;87.43
25945;SHT31;13742;49.306;8.636;2023-08-01T02:59:50;18.65;87.60
25945;SHT31;13742;49.306;8.636;2023-08-01T03:00:50;18.63;87.32
25945;SHT31;13742;49.306;8.636;2023-08-01T03:01:49;18.63;87.20
25945;SHT31;13742;49.306;8.636;2023-08-01T03:02:49;18.63;87.58
25945;SHT31;13742;49.306;8.636;2023-08-01T03:03:49;18.65;87.33
25945;SHT31;13742;49.306;8.636;2023-08-01T03:04:49;18.65;87.35
25945;SHT31;13742;49.306;8.636;2023-08-01T03:05:49;18.65;87.23
25945;SHT31;13742;49.306;8.636;2023-08-01T03:06:50;18.62;87.32
25945;SHT31;13742;49.306;8.636;2023-08-01T03:07:49;18.63;87.73
25945;SHT31;13742;49.306;8.636;2023-08-01T03:08:51;18.65;87.58
25945;SHT31;13742;49.306;8.636;2023-08-01T03:09:50;18.65;87.38
25945;SHT31;13742;49.306;8.636;2023-08-01T03:10:50;18.63;87.77
25945;SHT31;13742;49.306;8.636;2023-08-01T03:11:49;18.63;87.45
25945;SHT31;13742;49.306;8.636;2023-08-01T03:12:49;18.65;88.16
25945;SHT31;13742;49.306;8.636;2023-08-01T03:13:50;18.63;87.75
25945;SHT31;13742;49.306;8.636;2023-08-01T03:14:49;18.60;87.63
25945;SHT31;13742;49.306;8.636;2023-08-01T03:15:49;18.62;87.23
25945;SHT31;13742;49.306;8.636;2023-08-01T03:16:49;18.60;87.36
25945;SHT31;13742;49.306;8.636;2023-08-01T03:17:49;18.62;87.88
25945;SHT31;13742;49.306;8.636;2023-08-01T03:18:49;18.62;87.84
25945;SHT31;13742;49.306;8.636;2023-08-01T03:19:49;18.63;87.37
25945;SHT31;13742;49.306;8.636;2023-08-01T03:20:50;18.62;87.86
25945;SHT31;13742;49.306;8.636;2023-08-01T03:21:49;18.62;87.78
25945;SHT31;13742;49.306;8.636;2023-08-01T03:22:49;18.62;87.56
25945;SHT31;13742;49.306;8.636;2023-08-01T03:23:49;18.59;87.58
25945;SHT31;13742;49.306;8.636;2023-08-01T03:24:49;18.62;87.84
25945;SHT31;13742;49.306;8.636;2023-08-01T03:25:49;18.59;87.61
25945;SHT31;13742;49.306;8.636;2023-08-01T03:26:49;18.63;87.41
25945;SHT31;13742;49.306;8.636;2023-08-01T03:27:49;18.63;87.44
25945;SHT31;13742;49.306;8.636;2023-08-01T03:28:49;18.60;87.82
25945;SHT31;13742;49.306;8.636;2023-08-01T03:29:50;18.62;87.71
25945;SHT31;13742;49.306;8.636;2023-08-01T03:30:50;18.60;87.59
25945;SHT31;13742;49.306;8.636;2023-08-01T03:31:49;18.60;87.63
25945;SHT31;13742;49.306;8.636;2023-08-01T03:32:49;18.62;87.54
25945;SHT31;13742;49.306;8.636;2023-08-01T03:33:50;18.62;87.45
25945;SHT31;13742;49.306;8.636;2023-08-01T03:34:49;18.62;87.81
25945;SHT31;13742;49.306;8.636;2023-08-01T03:35:49;18.60;87.57
25945;SHT31;13742;49.306;8.636;2023-08-01T03:36:50;18.60;87.43
25945;SHT31;13742;49.306;8.636;2023-08-01T03:37:49;18.63;88.04
25945;SHT31;13742;49.306;8.636;2023-08-01T03:38:49;18.62;87.77
25945;SHT31;13742;49.306;8.636;2023-08-01T03:39:49;18.62;87.50
25945;SHT31;13742;49.306;8.636;2023-08-01T03:40:49;18.63;88.28
25945;SHT31;13742;49.306;8.636;2023-08-01T03:41:49;18.60;87.69
25945;SHT31;13742;49.306;8.636;2023-08-01T03:42:49;18.62;87.47
25945;SHT31;13742;49.306;8.636;2023-08-01T03:43:49;18.62;87.65
25945;SHT31;13742;49.306;8.636;2023-08-01T03:44:49;18.60;87.88
25945;SHT31;13742;49.306;8.636;2023-08-01T03:45:50;18.59;88.00
25945;SHT31;13742;49.306;8.636;2023-08-01T03:46:49;18.60;87.83
25945;SHT31;13742;49.306;8.636;2023-08-01T03:47:49;18.59;88.50
25945;SHT31;13742;49.306;8.636;2023-08-01T03:48:49;18.60;88.09
25945;SHT31;13742;49.306;8.636;2023-08-01T03:49:49;18.59;87.89
25945;SHT31;13742;49.306;8.636;2023-08-01T03:50:49;18.59;87.83
25945;SHT31;13742;49.306;8.636;2023-08-01T03:51:49;18.58;87.70
25945;SHT31;13742;49.306;8.636;2023-08-01T03:52:49;18.59;87.86
25945;SHT31;13742;49.306;8.636;2023-08-01T03:53:50;18.58;87.81
25945;SHT31;13742;49.306;8.636;2023-08-01T03:54:53;18.58;87.73
25945;SHT31;13742;49.306;8.636;2023-08-01T03:55:49;18.59;87.85
25945;SHT31;13742;49.306;8.636;2023-08-01T03:56:49;18.55;87.73
25945;SHT31;13742;49.306;8.636;2023-08-01T03:57:49;18.58;87.86
25945;SHT31;13742;49.306;8.636;2023-08-01T03:58:49;18.56;87.70
25945;SHT31;13742;49.306;8.636;2023-08-01T03:59:49;18.58;87.60
25945;SHT31;13742;49.306;8.636;2023-08-01T04:00:50;18.58;87.85
25945;SHT31;13742;49.306;8.636;2023-08-01T04:01:50;18.58;87.77
25945;SHT31;13742;49.306;8.636;2023-08-01T04:02:49;18.54;87.93
25945;SHT31;13742;49.306;8.636;2023-08-01T04:03:49;18.54;87.82
25945;SHT31;13742;49.306;8.636;2023-08-01T04:04:49;18.54;87.92
25945;SHT31;13742;49.306;8.636;2023-08-01T04:05:49;18.55;87.95
25945;SHT31;13742;49.306;8.636;2023-08-01T04:06:49;18.52;87.85
25945;SHT31;13742;49.306;8.636;2023-08-01T04:07:49;18.54;87.85
25945;SHT31;13742;49.306;8.636;2023-08-01T04:08:50;18.49;87.87
25945;SHT31;13742;49.306;8.636;2023-08-01T04:09:50;18.48;87.84
25945;SHT31;13742;49.306;8.636;2023-08-01T04:10:52;18.49;87.79
25945;SHT31;13742;49.306;8.636;2023-08-01T04:11:49;18.48;88.07
25945;SHT31;13742;49.306;8.636;2023-08-01T04:12:49;18.48;87.81
25945;SHT31;13742;49.306;8.636;2023-08-01T04:13:49;18.45;87.91
25945;SHT31;13742;49.306;8.636;2023-08-01T04:14:50;18.51;88.18
25945;SHT31;13742;49.306;8.636;2023-08-01T04:15:49;18.51;88.11
25945;SHT31;13742;49.306;8.636;2023-08-01T04:16:49;18.51;87.77
25945;SHT31;13742;49.306;8.636;2023-08-01T04:17:49;18.49;87.91
25945;SHT31;13742;49.306;8.636;2023-08-01T04:18:49;18.52;87.72
25945;SHT31;13742;49.306;8.636;2023-08-01T04:19:49;18.51;87.61
25945;SHT31;13742;49.306;8.636;2023-08-01T04:20:49;18.51;87.84
25945;SHT31;13742;49.306;8.636;2023-08-01T04:21:49;18.46;88.05
25945;SHT31;13742;49.306;8.636;2023-08-01T04:22:49;18.49;87.70
25945;SHT31;13742;49.306;8.636;2023-08-01T04:23:49;18.51;87.95
25945;SHT31;13742;49.306;8.636;2023-08-01T04:24:50;18.45;88.01
25945;SHT31;13742;49.306;8.636;2023-08-01T04:25:49;18.49;88.05
25945;SHT31;13742;49.306;8.636;2023-08-01T04:26:49;18.48;88.21
25945;SHT31;13742;49.306;8.636;2023-08-01T04:27:49;18.48;87.97
25945;SHT31;13742;49.306;8.636;2023-08-01T04:28:49;18.48;87.97
25945;SHT31;13742;49.306;8.636;2023-08-01T04:29:49;18.46;87.98
25945;SHT31;13742;49.306;8.636;2023-08-01T04:30:50;18.46;87.81
25945;SHT31;13742;49.306;8.636;2023-08-01T04:31:49;18.46;88.11
25945;SHT31;13742;49.306;8.636;2023-08-01T04:32:49;18.45;88.23
25945;SHT31;13742;49.306;8.636;2023-08-01T04:33:49;18.46;88.07
25945;SHT31;13742;49.306;8.636;2023-08-01T04:34:50;18.45;87.90
25945;SHT31;13742;49.306;8.636;2023-08-01T04:35:50;18.48;87.83
25945;SHT31;13742;49.306;8.636;2023-08-01T04:36:49;18.46;87.87
25945;SHT31;13742;49.306;8.636;2023-08-01T04:37:49;18.48;88.05
25945;SHT31;13742;49.306;8.636;2023-08-01T04:38:49;18.49;88.01
25945;SHT31;13742;49.306;8.636;2023-08-01T04:39:49;18.46;87.93
25945;SHT31;13742;49.306;8.636;2023-08-01T04:40:49;18.46;88.07
25945;SHT31;13742;49.306;8.636;2023-08-01T04:41:49;18.49;88.38
25945;SHT31;13742;49.306;8.636;2023-08-01T04:42:49;18.48;88.07
25945;SHT31;13742;49.306;8.636;2023-08-01T04:43:49;18.48;87.97
25945;SHT31;13742;49.306;8.636;2023-08-01T04:44:49;18.51;88.39
25945;SHT31;13742;49.306;8.636;2023-08-01T04:45:49;18.48;88.39
25945;SHT31;13742;49.306;8.636;2023-08-01T04:46:49;18.49;88.20
25945;SHT31;13742;49.306;8.636;2023-08-01T04:47:49;18.49;88.29
25945;SHT31;13742;49.306;8.636;2023-08-01T04:48:49;18.48;88.15
25945;SHT31;13742;49.306;8.636;2023-08-01T04:49:49;18.46;88.22
25945;SHT31;13742;49.306;8.636;2023-08-01T04:50:49;18.49;88.27
25945;SHT31;13742;49.306;8.636;2023-08-01T04:51:50;18.49;88.33
25945;SHT31;13742;49.306;8.636;2023-08-01T04:52:49;18.48;87.99
25945;SHT31;13742;49.306;8.636;2023-08-01T04:53:49;18.51;88.24
25945;SHT31;13742;49.306;8.636;2023-08-01T04:54:49;18.49;88.23
25945;SHT31;13742;49.306;8.636;2023-08-01T04:55:50;18.46;87.93
25945;SHT31;13742;49.306;8.636;2023-08-01T04:56:49;18.49;88.34
25945;SHT31;13742;49.306;8.636;2023-08-01T04:57:49;18.51;88.55
25945;SHT31;13742;49.306;8.636;2023-08-01T04:58:50;18.49;88.22
25945;SHT31;13742;49.306;8.636;2023-08-01T04:59:49;18.51;88.11
25945;SHT31;13742;49.306;8.636;2023-08-01T05:00:49;18.51;88.55
25945;SHT31;13742;49.306;8.636;2023-08-01T05:01:49;18.49;88.18
25945;SHT31;13742;49.306;8.636;2023-08-01T05:02:49;18.45;88.18
25945;SHT31;13742;49.306;8.636;2023-08-01T05:03:49;18.48;88.21
25945;SHT31;13742;49.306;8.636;2023-08-01T05:04:49;18.45;88.55
25945;SHT31;13742;49.306;8.636;2023-08-01T05:05:49;18.45;88.09
25945;SHT31;13742;49.306;8.636;2023-08-01T05:06:49;18.44;88.01
25945;SHT31;13742;49.306;8.636;2023-08-01T05:07:49;18.44;87.95
25945;SHT31;13742;49.306;8.636;2023-08-01T05:08:49;18.42;88.15
25945;SHT31;13742;49.306;8.636;2023-08-01T05:09:49;18.46;88.22
25945;SHT31;13742;49.306;8.636;2023-08-01T05:10:50;18.42;88.11
25945;SHT31;13742;49.306;8.636;2023-08-01T05:11:49;18.45;88.17
25945;SHT31;13742;49.306;8.636;2023-08-01T05:12:49;18.45;88.29
25945;SHT31;13742;49.306;8.636;2023-08-01T05:13:49;18.45;88.40
25945;SHT31;13742;49.306;8.636;2023-08-01T05:14:50;18.44;88.31
25945;SHT31;13742;49.306;8.636;2023-08-01T05:15:49;18.44;88.37
25945;SHT31;13742;49.306;8.636;2023-08-01T05:16:49;18.42;88.42
25945;SHT31;13742;49.306;8.636;2023-08-01T05:17:49;18.38;88.64
25945;SHT31;13742;49.306;8.636;2023-08-01T05:18:49;18.35;88.89
25945;SHT31;13742;49.306;8.636;2023-08-01T05:19:49;18.33;88.87
25945;SHT31;13742;49.306;8.636;2023-08-01T05:20:49;18.35;88.95
25945;SHT31;13742;49.306;8.636;2023-08-01T05:21:49;18.32;88.73
25945;SHT31;13742;49.306;8.636;2023-08-01T05:22:49;18.36;89.04
25945;SHT31;13742;49.306;8.636;2023-08-01T05:23:49;18.33;88.86
25945;SHT31;13742;49.306;8.636;2023-08-01T05:24:49;18.35;88.71
25945;SHT31;13742;49.306;8.636;2023-08-01T05:25:49;18.35;88.99
25945;SHT31;13742;49.306;8.636;2023-08-01T05:26:50;18.36;88.87
25945;SHT31;13742;49.306;8.636;2023-08-01T05:27:49;18.35;88.58
25945;SHT31;13742;49.306;8.636;2023-08-01T05:28:49;18.35;88.57
25945;SHT31;13742;49.306;8.636;2023-08-01T05:29:49;18.38;88.92
25945;SHT31;13742;49.306;8.636;2023-08-01T05:30:49;18.35;88.76
25945;SHT31;13742;49.306;8.636;2023-08-01T05:31:49;18.38;89.18
25945;SHT31;13742;49.306;8.636;2023-08-01T05:32:49;18.35;88.82
25945;SHT31;13742;49.306;8.636;2023-08-01T05:33:49;18.31;88.91
25945;SHT31;13742;49.306;8.636;2023-08-01T05:34:49;18.31;89.11
25945;SHT31;13742;49.306;8.636;2023-08-01T05:35:50;18.29;88.74
25945;SHT31;13742;49.306;8.636;2023-08-01T05:36:50;18.32;88.71
25945;SHT31;13742;49.306;8.636;2023-08-01T05:37:49;18.29;88.97
25945;SHT31;13742;49.306;8.636;2023-08-01T05:38:49;18.29;88.63
25945;SHT31;13742;49.306;8.636;2023-08-01T05:39:49;18.29;88.59
25945;SHT31;13742;49.306;8.636;2023-08-01T05:40:49;18.28;88.82
25945;SHT31;13742;49.306;8.636;2023-08-01T05:41:50;18.28;89.22
25945;SHT31;13742;49.306;8.636;2023-08-01T05:42:49;18.27;89.04
25945;SHT31;13742;49.306;8.636;2023-08-01T05:43:49;18.21;89.31
25945;SHT31;13742;49.306;8.636;2023-08-01T05:44:49;18.22;89.40
25945;SHT31;13742;49.306;8.636;2023-08-01T05:45:49;18.21;89.17
25945;SHT31;13742;49.306;8.636;2023-08-01T05:46:49;18.22;89.08
25945;SHT31;13742;49.306;8.636;2023-08-01T05:47:50;18.22;89.19
25945;SHT31;13742;49.306;8.636;2023-08-01T05:48:49;18.19;89.34
25945;SHT31;13742;49.306;8.636;2023-08-01T05:49:49;18.14;89.21
25945;SHT31;13742;49.306;8.636;2023-08-01T05:50:49;18.15;89.17
25945;SHT31;13742;49.306;8.636;2023-08-01T05:51:49;18.12;89.32
25945;SHT31;13742;49.306;8.636;2023-08-01T05:52:49;18.08;89.48
25945;SHT31;13742;49.306;8.636;2023-08-01T05:53:49;18.03;89.09
25945;SHT31;13742;49.306;8.636;2023-08-01T05:54:49;18.00;88.99
25945;SHT31;13742;49.306;8.636;2023-08-01T05:55:49;17.98;88.79
25945;SHT31;13742;49.306;8.636;2023-08-01T05:56:50;17.98;89.13
25945;SHT31;13742;49.306;8.636;2023-08-01T05:57:52;17.97;89.05
25945;SHT31;13742;49.306;8.636;2023-08-01T05:58:50;17.93;89.30
25945;SHT31;13742;49.306;8.636;2023-08-01T05:59:49;17.96;89.50
25945;SHT31;13742;49.306;8.636;2023-08-01T06:00:49;17.93;89.52
25945;SHT31;13742;49.306;8.636;2023-08-01T06:01:49;17.87;89.21
25945;SHT31;13742;49.306;8.636;2023-08-01T06:02:49;17.88;89.24
25945;SHT31;13742;49.306;8.636;2023-08-01T06:03:49;17.83;89.54
25945;SHT31;13742;49.306;8.636;2023-08-01T06:04:49;17.84;89.27
25945;SHT31;13742;49.306;8.636;2023-08-01T06:05:49;17.83;89.38
25945;SHT31;13742;49.306;8.636;2023-08-01T06:06:49;17.81;89.43
25945;SHT31;13742;49.306;8.636;2023-08-01T06:07:49;17.81;89.30
25945;SHT31;13742;49.306;8.636;2023-08-01T06:08:51;17.74;89.30
25945;SHT31;13742;49.306;8.636;2023-08-01T06:09:51;17.77;89.58
25945;SHT31;13742;49.306;8.636;2023-08-01T06:10:49;17.79;89.62
25945;SHT31;13742;49.306;8.636;2023-08-01T06:11:50;17.74;89.79
25945;SHT31;13742;49.306;8.636;2023-08-01T06:12:49;17.77;89.68
25945;SHT31;13742;49.306;8.636;2023-08-01T06:13:49;17.77;89.37
25945;SHT31;13742;49.306;8.636;2023-08-01T06:14:49;17.79;89.43
25945;SHT31;13742;49.306;8.636;2023-08-01T06:15:49;17.79;89.70
25945;SHT31;13742;49.306;8.636;2023-08-01T06:16:49;17.76;89.97
25945;SHT31;13742;49.306;8.636;2023-08-01T06:17:49;17.76;89.69
25945;SHT31;13742;49.306;8.636;2023-08-01T06:18:49;17.77;90.45